sensor_id;sensor_type;location;lat;lon;timestamp;pressure;altitude;pressure_sealevel;temperature;humidity
25610;BME280;13479;49.044;8.716;2023-03-13T05:02:45;98051.63;;;13.81;63.90
25610;BME280;13479;49.044;8.716;2023-03-13T05:05:10;98070.97;;;13.83;63.34
25610;BME280;13479;49.044;8.716;2023-03-13T05:07:36;98098.91;;;13.96;62.77
25610;BME280;13479;49.044;8.716;2023-03-13T05:10:01;98097.25;;;13.95;63.29
25610;BME280;13479;49.044;8.716;2023-03-13T05:12:27;98094.22;;;13.98;62.65
25610;BME280;13479;49.044;8.716;2023-03-13T05:14:52;98121.75;;;14.21;62.09
25610;BME280;13479;49.044;8.716;2023-03-13T05:17:17;98138.47;;;14.15;62.08
25610;BME280;13479;49.044;8.716;2023-03-13T05:19:43;98142.66;;;14.18;62.16
25610;BME280;13479;49.044;8.716;2023-03-13T05:22:08;98143.81;;;14.15;62.00
25610;BME280;13479;49.044;8.716;2023-03-13T05:24:33;98131.25;;;14.24;62.26
25610;BME280;13479;49.044;8.716;2023-03-13T05:26:58;98136.69;;;14.31;61.70
25610;BME280;13479;49.044;8.716;2023-03-13T05:29:24;98135.84;;;14.30;61.95
25610;BME280;13479;49.044;8.716;2023-03-13T05:31:49;98132.78;;;14.42;61.78
25610;BME280;13479;49.044;8.716;2023-03-13T05:34:14;98131.94;;;14.41;62.25
25610;BME280;13479;49.044;8.716;2023-03-13T05:36:39;98121.16;;;14.34;62.05
25610;BME280;13479;49.044;8.716;2023-03-13T05:39:05;98097.53;;;14.46;62.05
25610;BME280;13479;49.044;8.716;2023-03-13T05:41:30;98081.88;;;14.43;62.51
25610;BME280;13479;49.044;8.716;2023-03-13T05:43:55;98047.88;;;14.37;62.75
25610;BME280;13479;49.044;8.716;2023-03-13T05:46:21;98064.41;;;14.56;62.22
25610;BME280;13479;49.044;8.716;2023-03-13T05:48:46;98054.72;;;14.55;62.66
25610;BME280;13479;49.044;8.716;2023-03-13T05:51:11;98029.41;;;14.50;62.76
25610;BME280;13479;49.044;8.716;2023-03-13T05:53:37;98044.50;;;14.58;62.32
25610;BME280;13479;49.044;8.716;2023-03-13T05:56:02;98027.38;;;14.52;63.26
25610;BME280;13479;49.044;8.716;2023-03-13T05:58:28;98024.50;;;14.54;63.06
25610;BME280;13479;49.044;8.716;2023-03-13T06:00:53;98014.38;;;14.49;63.37
25610;BME280;13479;49.044;8.716;2023-03-13T06:03:18;97993.56;;;14.45;63.58
25610;BME280;13479;49.044;8.716;2023-03-13T06:05:43;98004.34;;;14.66;62.76
25610;BME280;13479;49.044;8.716;2023-03-13T06:08:09;98029.16;;;14.60;62.68
25610;BME280;13479;49.044;8.716;2023-03-13T06:10:34;98037.28;;;14.67;62.46
25610;BME280;13479;49.044;8.716;2023-03-13T06:12:59;98048.66;;;14.61;62.74
25610;BME280;13479;49.044;8.716;2023-03-13T06:15:25;98013.47;;;14.57;63.06
25610;BME280;13479;49.044;8.716;2023-03-13T06:17:50;97990.44;;;14.56;63.26
25610;BME280;13479;49.044;8.716;2023-03-13T06:20:15;98003.22;;;14.69;63.37
25610;BME280;13479;49.044;8.716;2023-03-13T06:22:41;98006.44;;;14.79;62.53
25610;BME280;13479;49.044;8.716;2023-03-13T06:25:07;98030.09;;;14.82;62.72
25610;BME280;13479;49.044;8.716;2023-03-13T06:27:32;98046.41;;;14.88;62.35
25610;BME280;13479;49.044;8.716;2023-03-13T06:29:57;98059.13;;;14.86;62.71
25610;BME280;13479;49.044;8.716;2023-03-13T06:32:23;98065.78;;;14.90;62.48
25610;BME280;13479;49.044;8.716;2023-03-13T06:34:48;98047.63;;;14.85;63.00
25610;BME280;13479;49.044;8.716;2023-03-13T06:37:13;98036.75;;;14.87;63.12
25610;BME280;13479;49.044;8.716;2023-03-13T06:39:38;98038.94;;;14.98;62.73
25610;BME280;13479;49.044;8.716;2023-03-13T06:42:04;98037.47;;;14.95;62.83
25610;BME280;13479;49.044;8.716;2023-03-13T06:44:29;98012.88;;;15.00;63.14
25610;BME280;13479;49.044;8.716;2023-03-13T06:46:55;98013.44;;;14.95;63.40
25610;BME280;13479;49.044;8.716;2023-03-13T06:49:20;98006.03;;;14.97;63.50
25610;BME280;13479;49.044;8.716;2023-03-13T06:51:45;98008.09;;;14.95;63.40
25610;BME280;13479;49.044;8.716;2023-03-13T06:54:10;98008.19;;;15.02;63.42
25610;BME280;13479;49.044;8.716;2023-03-13T06:56:36;97987.81;;;15.01;63.78
25610;BME280;13479;49.044;8.716;2023-03-13T06:59:01;97991.84;;;14.97;64.19
25610;BME280;13479;49.044;8.716;2023-03-13T07:01:26;98004.84;;;15.00;63.67
25610;BME280;13479;49.044;8.716;2023-03-13T07:03:51;97992.69;;;14.82;64.80
25610;BME280;13479;49.044;8.716;2023-03-13T07:06:17;97986.63;;;14.89;64.38
25610;BME280;13479;49.044;8.716;2023-03-13T07:08:43;97998.41;;;14.94;64.88
25610;BME280;13479;49.044;8.716;2023-03-13T07:11:10;98028.06;;;15.00;63.53
25610;BME280;13479;49.044;8.716;2023-03-13T07:13:36;98014.69;;;15.14;64.17
25610;BME280;13479;49.044;8.716;2023-03-13T07:16:03;98075.25;;;15.22;62.47
25610;BME280;13479;49.044;8.716;2023-03-13T07:18:29;98078.66;;;15.16;62.85
25610;BME280;13479;49.044;8.716;2023-03-13T07:20:57;98074.91;;;15.10;63.06
25610;BME280;13479;49.044;8.716;2023-03-13T07:23:25;98067.63;;;15.19;62.68
25610;BME280;13479;49.044;8.716;2023-03-13T07:25:56;98061.06;;;15.07;62.92
25610;BME280;13479;49.044;8.716;2023-03-13T07:28:22;98035.59;;;15.11;63.10
25610;BME280;13479;49.044;8.716;2023-03-13T07:30:48;98066.31;;;15.15;62.89
25610;BME280;13479;49.044;8.716;2023-03-13T07:33:14;98059.09;;;15.16;62.62
25610;BME280;13479;49.044;8.716;2023-03-13T07:35:39;98060.03;;;15.23;62.20
25610;BME280;13479;49.044;8.716;2023-03-13T07:38:04;98060.03;;;15.23;62.26
25610;BME280;13479;49.044;8.716;2023-03-13T07:40:30;98071.38;;;15.40;61.74
25610;BME280;13479;49.044;8.716;2023-03-13T07:42:55;98081.13;;;15.48;61.23
25610;BME280;13479;49.044;8.716;2023-03-13T07:45:20;98068.84;;;15.53;61.01
25610;BME280;13479;49.044;8.716;2023-03-13T07:47:45;98057.59;;;15.58;60.77
25610;BME280;13479;49.044;8.716;2023-03-13T07:50:11;98061.81;;;15.67;60.45
25610;BME280;13479;49.044;8.716;2023-03-13T07:52:36;98069.34;;;15.79;59.71
25610;BME280;13479;49.044;8.716;2023-03-13T07:55:01;98072.94;;;15.86;59.89
25610;BME280;13479;49.044;8.716;2023-03-13T07:57:26;98059.63;;;15.93;59.35
25610;BME280;13479;49.044;8.716;2023-03-13T07:59:52;98053.84;;;15.89;59.13
25610;BME280;13479;49.044;8.716;2023-03-13T08:02:17;98056.50;;;15.89;58.69
25610;BME280;13479;49.044;8.716;2023-03-13T08:04:42;98051.03;;;15.97;58.54
25610;BME280;13479;49.044;8.716;2023-03-13T08:07:09;98056.44;;;16.04;58.34
25610;BME280;13479;49.044;8.716;2023-03-13T08:09:34;98053.69;;;16.19;57.97
25610;BME280;13479;49.044;8.716;2023-03-13T08:11:59;98054.66;;;16.11;58.17
25610;BME280;13479;49.044;8.716;2023-03-13T08:14:26;98057.38;;;16.18;58.28
25610;BME280;13479;49.044;8.716;2023-03-13T08:16:51;98071.41;;;16.20;57.79
25610;BME280;13479;49.044;8.716;2023-03-13T08:19:17;98060.56;;;16.28;57.74
25610;BME280;13479;49.044;8.716;2023-03-13T08:21:42;98080.06;;;16.44;57.17
25610;BME280;13479;49.044;8.716;2023-03-13T08:24:07;98078.53;;;16.56;56.79
25610;BME280;13479;49.044;8.716;2023-03-13T08:26:37;98079.28;;;16.72;56.45
25610;BME280;13479;49.044;8.716;2023-03-13T08:29:05;98083.94;;;16.91;56.11
25610;BME280;13479;49.044;8.716;2023-03-13T08:31:37;98090.69;;;17.16;55.52
25610;BME280;13479;49.044;8.716;2023-03-13T08:34:02;98102.00;;;17.46;54.17
25610;BME280;13479;49.044;8.716;2023-03-13T08:36:33;98082.69;;;17.64;53.70
25610;BME280;13479;49.044;8.716;2023-03-13T08:39:00;98095.56;;;17.89;52.99
25610;BME280;13479;49.044;8.716;2023-03-13T08:41:28;98097.47;;;18.02;52.48
25610;BME280;13479;49.044;8.716;2023-03-13T08:43:55;98108.00;;;18.10;52.15
25610;BME280;13479;49.044;8.716;2023-03-13T08:46:21;98100.81;;;18.11;51.64
25610;BME280;13479;49.044;8.716;2023-03-13T08:48:51;98106.31;;;17.96;51.66
25610;BME280;13479;49.044;8.716;2023-03-13T08:51:18;98096.56;;;17.81;51.99
25610;BME280;13479;49.044;8.716;2023-03-13T08:53:44;98081.84;;;17.64;52.48
25610;BME280;13479;49.044;8.716;2023-03-13T08:56:12;98087.97;;;17.44;53.00
25610;BME280;13479;49.044;8.716;2023-03-13T08:58:38;98053.91;;;17.38;52.92
25610;BME280;13479;49.044;8.716;2023-03-13T09:01:09;98068.94;;;17.32;52.90
25610;BME280;13479;49.044;8.716;2023-03-13T09:03:34;98046.13;;;17.14;53.48
25610;BME280;13479;49.044;8.716;2023-03-13T09:06:01;98030.59;;;17.03;53.71
25610;BME280;13479;49.044;8.716;2023-03-13T09:08:27;98022.34;;;16.98;53.72
25610;BME280;13479;49.044;8.716;2023-03-13T09:10:54;98023.94;;;16.92;54.01
25610;BME280;13479;49.044;8.716;2023-03-13T09:13:20;97994.59;;;16.77;54.46
25610;BME280;13479;49.044;8.716;2023-03-13T09:15:53;97983.22;;;16.75;54.39
25610;BME280;13479;49.044;8.716;2023-03-13T09:18:18;97981.56;;;16.74;54.60
25610;BME280;13479;49.044;8.716;2023-03-13T09:20:43;97990.63;;;16.73;54.65
25610;BME280;13479;49.044;8.716;2023-03-13T09:23:09;97984.03;;;16.76;54.74
25610;BME280;13479;49.044;8.716;2023-03-13T09:25:37;98027.88;;;18.47;52.03
25610;BME280;13479;49.044;8.716;2023-03-13T09:28:02;98161.75;;;20.49;47.19
25610;BME280;13479;49.044;8.716;2023-03-13T09:30:28;98180.31;;;22.75;42.65
25610;BME280;13479;49.044;8.716;2023-03-13T09:32:53;98182.31;;;24.28;39.21
25610;BME280;13479;49.044;8.716;2023-03-13T09:35:18;98170.94;;;26.56;36.77
25610;BME280;13479;49.044;8.716;2023-03-13T09:37:43;98167.94;;;28.50;32.75
25610;BME280;13479;49.044;8.716;2023-03-13T09:40:14;98166.16;;;29.83;30.06
25610;BME280;13479;49.044;8.716;2023-03-13T09:42:45;98167.75;;;30.05;28.61
25610;BME280;13479;49.044;8.716;2023-03-13T09:45:17;98166.16;;;29.94;28.99
25610;BME280;13479;49.044;8.716;2023-03-13T09:47:49;98159.53;;;28.93;29.36
25610;BME280;13479;49.044;8.716;2023-03-13T09:50:26;98144.88;;;27.36;30.95
25610;BME280;13479;49.044;8.716;2023-03-13T09:52:56;98124.91;;;26.00;32.85
25610;BME280;13479;49.044;8.716;2023-03-13T09:55:29;98097.91;;;24.70;34.88
25610;BME280;13479;49.044;8.716;2023-03-13T10:01:03;98077.75;;;22.62;38.55
25610;BME280;13479;49.044;8.716;2023-03-13T10:03:39;98054.59;;;22.12;39.44
25610;BME280;13479;49.044;8.716;2023-03-13T10:06:17;98055.25;;;21.65;40.51
25610;BME280;13479;49.044;8.716;2023-03-13T10:08:42;98043.41;;;21.28;41.33
25610;BME280;13479;49.044;8.716;2023-03-13T10:11:34;98034.81;;;21.01;42.23
25610;BME280;13479;49.044;8.716;2023-03-13T10:14:12;98036.75;;;20.68;42.84
25610;BME280;13479;49.044;8.716;2023-03-13T10:17:30;98012.56;;;20.36;43.46
25610;BME280;13479;49.044;8.716;2023-03-13T10:19:59;98005.06;;;20.20;44.16
25610;BME280;13479;49.044;8.716;2023-03-13T10:22:27;98003.06;;;20.09;44.37
25610;BME280;13479;49.044;8.716;2023-03-13T10:24:59;97983.66;;;20.00;44.68
25610;BME280;13479;49.044;8.716;2023-03-13T10:27:26;97980.41;;;19.84;45.04
25610;BME280;13479;49.044;8.716;2023-03-13T10:29:52;97982.28;;;19.84;45.09
25610;BME280;13479;49.044;8.716;2023-03-13T10:32:17;97976.03;;;19.90;45.02
25610;BME280;13479;49.044;8.716;2023-03-13T10:35:03;97971.03;;;19.94;44.91
25610;BME280;13479;49.044;8.716;2023-03-13T10:37:31;97967.72;;;19.98;45.45
25610;BME280;13479;49.044;8.716;2023-03-13T10:40:33;97964.13;;;20.04;45.08
25610;BME280;13479;49.044;8.716;2023-03-13T10:43:04;97960.13;;;20.14;45.11
25610;BME280;13479;49.044;8.716;2023-03-13T10:45:35;97964.84;;;20.18;44.98
25610;BME280;13479;49.044;8.716;2023-03-13T10:48:11;97950.75;;;20.16;44.94
25610;BME280;13479;49.044;8.716;2023-03-13T10:50:41;97948.84;;;20.24;44.81
25610;BME280;13479;49.044;8.716;2023-03-13T10:53:42;97939.56;;;20.38;44.95
25610;BME280;13479;49.044;8.716;2023-03-13T10:56:13;97947.81;;;20.43;44.68
25610;BME280;13479;49.044;8.716;2023-03-13T10:58:42;97926.44;;;20.23;45.19
25610;BME280;13479;49.044;8.716;2023-03-13T11:03:44;97911.31;;;20.22;45.33
25610;BME280;13479;49.044;8.716;2023-03-13T11:08:49;97907.63;;;20.79;44.70
25610;BME280;13479;49.044;8.716;2023-03-13T11:11:18;97941.63;;;21.17;43.76
25610;BME280;13479;49.044;8.716;2023-03-13T11:13:44;97951.75;;;21.34;43.55
25610;BME280;13479;49.044;8.716;2023-03-13T11:16:16;97962.03;;;21.74;43.03
25610;BME280;13479;49.044;8.716;2023-03-13T11:21:23;97978.00;;;22.42;41.35
25610;BME280;13479;49.044;8.716;2023-03-13T11:24:01;97972.09;;;22.80;40.28
25610;BME280;13479;49.044;8.716;2023-03-13T11:26:46;97973.97;;;22.92;40.34
25610;BME280;13479;49.044;8.716;2023-03-13T11:29:25;97964.88;;;23.22;40.31
25610;BME280;13479;49.044;8.716;2023-03-13T11:31:56;97953.25;;;23.38;39.67
25610;BME280;13479;49.044;8.716;2023-03-13T11:34:45;97948.19;;;23.42;38.29
25610;BME280;13479;49.044;8.716;2023-03-13T11:37:14;97950.38;;;23.28;39.07
25610;BME280;13479;49.044;8.716;2023-03-13T11:39:52;97956.84;;;23.27;39.29
25610;BME280;13479;49.044;8.716;2023-03-13T11:42:47;97931.75;;;23.32;38.96
25610;BME280;13479;49.044;8.716;2023-03-13T11:45:35;97937.56;;;23.11;38.89
25610;BME280;13479;49.044;8.716;2023-03-13T11:48:27;97922.41;;;23.10;39.54
25610;BME280;13479;49.044;8.716;2023-03-13T11:51:23;97916.53;;;23.02;39.34
25610;BME280;13479;49.044;8.716;2023-03-13T11:54:35;97900.03;;;22.74;39.45
25610;BME280;13479;49.044;8.716;2023-03-13T11:57:24;97884.44;;;22.41;39.83
25610;BME280;13479;49.044;8.716;2023-03-13T12:02:27;97842.50;;;22.14;41.20
25610;BME280;13479;49.044;8.716;2023-03-13T12:05:06;97828.88;;;21.85;41.26
25610;BME280;13479;49.044;8.716;2023-03-13T12:07:36;97807.97;;;21.93;41.85
25610;BME280;13479;49.044;8.716;2023-03-13T12:10:15;97796.72;;;21.84;41.96
25610;BME280;13479;49.044;8.716;2023-03-13T12:13:10;97781.44;;;21.89;42.06
25610;BME280;13479;49.044;8.716;2023-03-13T12:15:42;97790.38;;;21.78;41.50
25610;BME280;13479;49.044;8.716;2023-03-13T12:18:25;97774.88;;;21.62;42.17
25610;BME280;13479;49.044;8.716;2023-03-13T12:21:18;97775.41;;;21.40;42.32
25610;BME280;13479;49.044;8.716;2023-03-13T12:26:44;97746.09;;;21.55;42.70
25610;BME280;13479;49.044;8.716;2023-03-13T12:34:38;97752.38;;;22.09;41.87
25610;BME280;13479;49.044;8.716;2023-03-13T12:40:15;97760.75;;;22.36;40.56
25610;BME280;13479;49.044;8.716;2023-03-13T12:42:48;97770.91;;;22.29;40.50
25610;BME280;13479;49.044;8.716;2023-03-13T12:45:20;97768.34;;;22.22;40.85
25610;BME280;13479;49.044;8.716;2023-03-13T12:56:05;97712.22;;;22.00;41.66
25610;BME280;13479;49.044;8.716;2023-03-13T12:58:52;97707.38;;;22.14;40.84
25610;BME280;13479;49.044;8.716;2023-03-13T13:03:52;97703.94;;;22.60;40.34
25610;BME280;13479;49.044;8.716;2023-03-13T13:06:19;97687.41;;;22.73;40.87
25610;BME280;13479;49.044;8.716;2023-03-13T13:16:45;97691.59;;;22.81;39.16
25610;BME280;13479;49.044;8.716;2023-03-13T13:30:00;97672.03;;;23.25;39.09
25610;BME280;13479;49.044;8.716;2023-03-13T13:32:38;97677.50;;;23.30;38.48
25610;BME280;13479;49.044;8.716;2023-03-13T13:35:24;97657.81;;;23.35;39.56
25610;BME280;13479;49.044;8.716;2023-03-13T13:37:50;97663.78;;;23.37;38.71
25610;BME280;13479;49.044;8.716;2023-03-13T13:40:30;97661.66;;;23.39;38.37
25610;BME280;13479;49.044;8.716;2023-03-13T13:43:03;97642.78;;;23.27;38.79
25610;BME280;13479;49.044;8.716;2023-03-13T13:45:32;97616.63;;;23.33;39.19
25610;BME280;13479;49.044;8.716;2023-03-13T13:53:47;97609.84;;;22.96;38.83
25610;BME280;13479;49.044;8.716;2023-03-13T13:58:55;97584.94;;;22.60;39.27
25610;BME280;13479;49.044;8.716;2023-03-13T14:01:21;97580.97;;;22.33;39.80
25610;BME280;13479;49.044;8.716;2023-03-13T14:03:50;97554.25;;;22.37;40.37
25610;BME280;13479;49.044;8.716;2023-03-13T14:06:23;97539.03;;;22.31;39.98
25610;BME280;13479;49.044;8.716;2023-03-13T14:08:54;97518.38;;;22.25;40.16
25610;BME280;13479;49.044;8.716;2023-03-13T14:11:34;97518.72;;;22.28;39.92
25610;BME280;13479;49.044;8.716;2023-03-13T14:14:27;97535.47;;;22.13;39.47
25610;BME280;13479;49.044;8.716;2023-03-13T14:16:54;97522.94;;;22.07;39.94
25610;BME280;13479;49.044;8.716;2023-03-13T14:19:34;97528.34;;;22.07;39.48
25610;BME280;13479;49.044;8.716;2023-03-13T14:22:06;97524.41;;;21.98;39.60
25610;BME280;13479;49.044;8.716;2023-03-13T14:24:33;97524.09;;;21.94;39.82
25610;BME280;13479;49.044;8.716;2023-03-13T14:26:59;97499.50;;;21.96;40.05
25610;BME280;13479;49.044;8.716;2023-03-13T14:29:24;97484.63;;;21.93;39.92
25610;BME280;13479;49.044;8.716;2023-03-13T14:31:58;97495.34;;;22.05;39.70
25610;BME280;13479;49.044;8.716;2023-03-13T14:34:25;97491.09;;;22.09;39.80
25610;BME280;13479;49.044;8.716;2023-03-13T14:36:56;97500.50;;;22.24;39.30
25610;BME280;13479;49.044;8.716;2023-03-13T14:42:02;97477.13;;;22.12;39.16
25610;BME280;13479;49.044;8.716;2023-03-13T14:44:29;97474.41;;;22.12;39.30
25610;BME280;13479;49.044;8.716;2023-03-13T14:46:57;97477.19;;;22.17;38.44
25610;BME280;13479;49.044;8.716;2023-03-13T14:49:26;97458.41;;;21.94;39.42
25610;BME280;13479;49.044;8.716;2023-03-13T14:54:30;97441.63;;;21.91;39.26
25610;BME280;13479;49.044;8.716;2023-03-13T14:57:22;97428.22;;;21.80;39.55
25610;BME280;13479;49.044;8.716;2023-03-13T14:59:49;97409.34;;;21.68;39.69
25610;BME280;13479;49.044;8.716;2023-03-13T15:05:28;97394.56;;;21.70;39.75
25610;BME280;13479;49.044;8.716;2023-03-13T15:07:54;97372.66;;;21.67;40.00
25610;BME280;13479;49.044;8.716;2023-03-13T15:10:31;97379.44;;;21.86;39.36
25610;BME280;13479;49.044;8.716;2023-03-13T15:12:57;97371.00;;;21.66;40.08
25610;BME280;13479;49.044;8.716;2023-03-13T15:15:22;97349.88;;;21.63;40.68
25610;BME280;13479;49.044;8.716;2023-03-13T15:17:48;97337.00;;;21.53;40.45
25610;BME280;13479;49.044;8.716;2023-03-13T15:20:14;97331.91;;;21.56;40.48
25610;BME280;13479;49.044;8.716;2023-03-13T15:22:42;97322.88;;;21.63;40.19
25610;BME280;13479;49.044;8.716;2023-03-13T15:25:16;97321.88;;;21.69;40.14
25610;BME280;13479;49.044;8.716;2023-03-13T15:27:42;97317.47;;;21.80;40.08
25610;BME280;13479;49.044;8.716;2023-03-13T15:30:08;97334.25;;;21.82;39.82
25610;BME280;13479;49.044;8.716;2023-03-13T15:32:36;97323.69;;;21.80;39.98
25610;BME280;13479;49.044;8.716;2023-03-13T15:37:51;97310.16;;;21.97;39.43
25610;BME280;13479;49.044;8.716;2023-03-13T15:40:17;97311.31;;;22.01;39.32
25610;BME280;13479;49.044;8.716;2023-03-13T15:42:42;97307.81;;;22.01;39.28
25610;BME280;13479;49.044;8.716;2023-03-13T15:45:08;97299.13;;;21.99;39.27
25610;BME280;13479;49.044;8.716;2023-03-13T15:47:33;97303.66;;;22.15;39.13
25610;BME280;13479;49.044;8.716;2023-03-13T15:49:58;97299.25;;;22.09;39.34
25610;BME280;13479;49.044;8.716;2023-03-13T15:52:24;97289.47;;;21.86;39.98
25610;BME280;13479;49.044;8.716;2023-03-13T15:54:50;97270.16;;;21.94;40.01
25610;BME280;13479;49.044;8.716;2023-03-13T15:57:20;97265.72;;;21.88;40.11
25610;BME280;13479;49.044;8.716;2023-03-13T15:59:47;97263.16;;;21.98;39.47
25610;BME280;13479;49.044;8.716;2023-03-13T16:02:15;97263.44;;;21.97;39.68
25610;BME280;13479;49.044;8.716;2023-03-13T16:04:41;97254.19;;;21.93;39.54
25610;BME280;13479;49.044;8.716;2023-03-13T16:07:11;97264.84;;;21.82;39.68
25610;BME280;13479;49.044;8.716;2023-03-13T16:09:38;97246.28;;;21.69;40.27
25610;BME280;13479;49.044;8.716;2023-03-13T16:12:04;97236.38;;;21.57;40.49
25610;BME280;13479;49.044;8.716;2023-03-13T16:14:29;97224.84;;;21.45;40.94
25610;BME280;13479;49.044;8.716;2023-03-13T16:16:54;97202.63;;;21.38;40.98
25610;BME280;13479;49.044;8.716;2023-03-13T16:19:20;97202.16;;;21.24;41.23
25610;BME280;13479;49.044;8.716;2023-03-13T16:21:45;97193.63;;;21.15;41.20
25610;BME280;13479;49.044;8.716;2023-03-13T16:24:13;97186.13;;;21.00;41.77
25610;BME280;13479;49.044;8.716;2023-03-13T16:26:39;97187.13;;;21.11;41.28
25610;BME280;13479;49.044;8.716;2023-03-13T16:29:04;97183.31;;;20.95;41.65
25610;BME280;13479;49.044;8.716;2023-03-13T16:31:31;97183.88;;;20.80;41.99
25610;BME280;13479;49.044;8.716;2023-03-13T16:33:58;97175.22;;;20.78;42.11
25610;BME280;13479;49.044;8.716;2023-03-13T16:36:28;97164.97;;;20.63;42.46
25610;BME280;13479;49.044;8.716;2023-03-13T16:38:56;97160.88;;;20.60;42.71
25610;BME280;13479;49.044;8.716;2023-03-13T16:41:23;97151.16;;;20.59;42.81
25610;BME280;13479;49.044;8.716;2023-03-13T16:43:49;97148.47;;;20.59;42.88
25610;BME280;13479;49.044;8.716;2023-03-13T16:46:20;97147.16;;;20.62;42.82
25610;BME280;13479;49.044;8.716;2023-03-13T16:48:47;97146.03;;;20.58;43.11
25610;BME280;13479;49.044;8.716;2023-03-13T16:51:20;97141.91;;;20.55;43.13
25610;BME280;13479;49.044;8.716;2023-03-13T16:53:47;97124.03;;;20.49;43.37
25610;BME280;13479;49.044;8.716;2023-03-13T16:56:19;97124.28;;;20.47;43.52
25610;BME280;13479;49.044;8.716;2023-03-13T16:58:46;97122.66;;;20.46;43.48
25610;BME280;13479;49.044;8.716;2023-03-13T17:01:11;97127.22;;;20.46;43.34
25610;BME280;13479;49.044;8.716;2023-03-13T17:03:36;97120.69;;;20.42;43.68
25610;BME280;13479;49.044;8.716;2023-03-13T17:06:02;97115.84;;;20.44;43.43
25610;BME280;13479;49.044;8.716;2023-03-13T17:08:27;97114.72;;;20.40;43.75
25610;BME280;13479;49.044;8.716;2023-03-13T17:10:52;97115.19;;;20.36;43.81
25610;BME280;13479;49.044;8.716;2023-03-13T17:13:18;97120.59;;;20.36;43.85
25610;BME280;13479;49.044;8.716;2023-03-13T17:15:44;97102.31;;;20.39;44.04
25610;BME280;13479;49.044;8.716;2023-03-13T17:18:10;97102.88;;;20.41;43.80
25610;BME280;13479;49.044;8.716;2023-03-13T17:20:36;97093.38;;;20.38;44.24
25610;BME280;13479;49.044;8.716;2023-03-13T17:23:01;97106.16;;;20.43;43.87
25610;BME280;13479;49.044;8.716;2023-03-13T17:25:27;97116.09;;;20.42;44.42
25610;BME280;13479;49.044;8.716;2023-03-13T17:27:52;97150.34;;;20.59;44.92
25610;BME280;13479;49.044;8.716;2023-03-13T17:30:26;97187.28;;;20.29;45.33
25610;BME280;13479;49.044;8.716;2023-03-13T17:32:52;97159.78;;;19.74;46.80
25610;BME280;13479;49.044;8.716;2023-03-13T17:35:19;97141.59;;;19.29;48.04
25610;BME280;13479;49.044;8.716;2023-03-13T17:37:45;97118.97;;;18.82;49.75
25610;BME280;13479;49.044;8.716;2023-03-13T17:40:30;97123.78;;;18.38;51.20
25610;BME280;13479;49.044;8.716;2023-03-13T17:42:57;97148.66;;;18.03;52.51
25610;BME280;13479;49.044;8.716;2023-03-13T17:45:23;97192.91;;;17.75;53.96
25610;BME280;13479;49.044;8.716;2023-03-13T17:47:49;97138.06;;;17.52;54.84
25610;BME280;13479;49.044;8.716;2023-03-13T17:52:44;97109.84;;;17.06;56.93
25610;BME280;13479;49.044;8.716;2023-03-13T17:55:10;97097.66;;;16.85;58.28
25610;BME280;13479;49.044;8.716;2023-03-13T17:57:35;97116.56;;;16.64;59.33
25610;BME280;13479;49.044;8.716;2023-03-13T18:00:00;97129.53;;;16.42;61.07
25610;BME280;13479;49.044;8.716;2023-03-13T18:02:26;97151.41;;;16.32;61.54
25610;BME280;13479;49.044;8.716;2023-03-13T18:04:51;97184.66;;;16.11;63.08
25610;BME280;13479;49.044;8.716;2023-03-13T18:07:27;97198.50;;;16.01;63.82
25610;BME280;13479;49.044;8.716;2023-03-13T18:09:52;97222.84;;;15.80;65.92
25610;BME280;13479;49.044;8.716;2023-03-13T18:12:18;97193.44;;;15.66;67.54
25610;BME280;13479;49.044;8.716;2023-03-13T18:14:44;97205.81;;;15.54;68.56
25610;BME280;13479;49.044;8.716;2023-03-13T18:17:22;97188.97;;;15.47;69.27
25610;BME280;13479;49.044;8.716;2023-03-13T18:19:49;97235.88;;;15.29;70.50
25610;BME280;13479;49.044;8.716;2023-03-13T18:22:18;97250.69;;;15.11;71.94
25610;BME280;13479;49.044;8.716;2023-03-13T18:24:49;97300.84;;;15.09;73.01
25610;BME280;13479;49.044;8.716;2023-03-13T18:27:17;97247.78;;;15.00;74.37
25610;BME280;13479;49.044;8.716;2023-03-13T18:29:44;97252.31;;;15.06;75.31
25610;BME280;13479;49.044;8.716;2023-03-13T18:32:12;97204.22;;;15.12;75.73
25610;BME280;13479;49.044;8.716;2023-03-13T18:34:37;97223.94;;;14.78;77.50
25610;BME280;13479;49.044;8.716;2023-03-13T18:37:09;97217.69;;;14.50;79.83
25610;BME280;13479;49.044;8.716;2023-03-13T18:39:35;97235.72;;;14.42;81.15
25610;BME280;13479;49.044;8.716;2023-03-13T18:42:00;97249.22;;;14.27;81.51
25610;BME280;13479;49.044;8.716;2023-03-13T18:44:26;97274.69;;;14.23;82.22
25610;BME280;13479;49.044;8.716;2023-03-13T18:46:51;97277.50;;;14.14;82.63
25610;BME280;13479;49.044;8.716;2023-03-13T18:49:21;97279.53;;;14.05;82.52
25610;BME280;13479;49.044;8.716;2023-03-13T18:51:47;97295.09;;;14.02;82.54
25610;BME280;13479;49.044;8.716;2023-03-13T18:54:13;97310.47;;;14.00;82.79
25610;BME280;13479;49.044;8.716;2023-03-13T18:56:39;97326.06;;;14.03;83.50
25610;BME280;13479;49.044;8.716;2023-03-13T18:59:08;97327.56;;;14.05;83.58
25610;BME280;13479;49.044;8.716;2023-03-13T19:01:35;97303.41;;;14.20;83.47
25610;BME280;13479;49.044;8.716;2023-03-13T19:04:00;97315.31;;;14.18;83.38
25610;BME280;13479;49.044;8.716;2023-03-13T19:06:31;97309.53;;;14.14;84.26
25610;BME280;13479;49.044;8.716;2023-03-13T19:08:58;97330.00;;;14.07;85.33
25610;BME280;13479;49.044;8.716;2023-03-13T19:11:26;97350.28;;;14.01;86.15
25610;BME280;13479;49.044;8.716;2023-03-13T19:13:52;97349.91;;;14.04;86.98
25610;BME280;13479;49.044;8.716;2023-03-13T19:18:51;97333.59;;;14.28;88.06
25610;BME280;13479;49.044;8.716;2023-03-13T19:21:23;97342.03;;;14.31;87.65
25610;BME280;13479;49.044;8.716;2023-03-13T19:23:50;97381.47;;;14.36;87.26
25610;BME280;13479;49.044;8.716;2023-03-13T19:28:43;97425.31;;;14.20;87.99
25610;BME280;13479;49.044;8.716;2023-03-13T19:31:08;97418.69;;;14.09;88.60
25610;BME280;13479;49.044;8.716;2023-03-13T19:33:34;97449.53;;;14.18;89.17